createdAt,value
2018-06-15T00:00:25.617Z,101067.06
2018-06-15T00:03:00.438Z,101070.53
2018-06-15T00:05:30.211Z,101069.67
2018-06-15T00:08:00.029Z,101070.54
2018-06-15T00:10:30.242Z,101070.97
2018-06-15T00:12:59.933Z,101066.61
2018-06-15T00:15:29.642Z,101069.23
2018-06-15T00:17:59.328Z,101069.23
2018-06-15T00:20:29.126Z,101061.38
2018-06-15T00:22:58.822Z,101062.66
2018-06-15T00:25:28.548Z,101062.23
2018-06-15T00:27:58.208Z,101063.13
2018-06-15T00:30:27.859Z,101068.77
2018-06-15T00:32:57.487Z,101066.19
2018-06-15T00:35:27.140Z,101063.56
2018-06-15T00:37:56.784Z,101067.89
2018-06-15T00:40:26.451Z,101065.74
2018-06-15T00:42:56.101Z,101061.80
2018-06-15T00:45:25.933Z,101063.56
2018-06-15T00:47:55.646Z,101063.11
2018-06-15T00:50:25.301Z,101062.67
2018-06-15T00:52:55.218Z,101058.32
2018-06-15T00:55:24.857Z,101052.62
2018-06-15T00:57:54.586Z,101054.40
2018-06-15T01:00:24.214Z,101050.03
2018-06-15T01:02:53.889Z,101047.83
2018-06-15T01:05:23.556Z,101051.76
2018-06-15T01:07:53.301Z,101046.98
2018-06-15T01:10:23.092Z,101043.47
2018-06-15T01:12:52.768Z,101043.90
2018-06-15T01:15:22.469Z,101043.05
2018-06-15T01:17:51.846Z,101035.64
2018-06-15T01:20:21.483Z,101032.13
2018-06-15T01:22:51.104Z,101043.03
2018-06-15T01:25:20.713Z,101039.09
2018-06-15T01:27:50.006Z,101033.42
2018-06-15T01:30:19.300Z,101031.67
2018-06-15T01:32:48.893Z,101030.80
2018-06-15T01:35:18.528Z,101036.47
2018-06-15T01:37:48.216Z,101026.86
2018-06-15T01:40:18.017Z,101026.86
2018-06-15T01:42:47.629Z,101024.26
2018-06-15T01:45:17.377Z,101027.31
2018-06-15T01:47:47.158Z,101030.39
2018-06-15T01:50:16.878Z,101024.70
2018-06-15T01:52:46.533Z,101022.08
2018-06-15T01:55:15.904Z,101024.28
2018-06-15T01:57:45.704Z,101023.40
2018-06-15T02:00:15.340Z,101030.39
2018-06-15T02:02:45.153Z,101025.95
2018-06-15T02:05:14.869Z,101028.12
2018-06-15T02:07:44.535Z,101025.52
2018-06-15T02:10:14.195Z,101024.20
2018-06-15T02:12:43.842Z,101020.75
2018-06-15T02:15:13.590Z,101022.06
2018-06-15T02:17:43.257Z,101022.06
2018-06-15T02:20:12.620Z,101022.48
2018-06-15T02:22:42.344Z,101026.41
2018-06-15T02:25:12.057Z,101025.11
2018-06-15T02:27:41.917Z,101026.42
2018-06-15T02:30:11.564Z,101023.80
2018-06-15T02:32:41.230Z,101028.58
2018-06-15T02:35:10.596Z,101024.22
2018-06-15T02:37:40.260Z,101025.06
2018-06-15T02:40:10.046Z,101027.70
2018-06-15T02:42:39.702Z,101025.11
2018-06-15T02:45:09.361Z,101029.03
2018-06-15T02:47:39.125Z,101026.41
2018-06-15T02:50:08.825Z,101022.47
2018-06-15T02:52:38.215Z,101023.30
2018-06-15T02:55:07.892Z,101030.72
2018-06-15T02:57:37.940Z,101026.34
2018-06-15T03:00:07.679Z,101030.24
2018-06-15T03:02:37.305Z,101031.99
2018-06-15T03:05:07.037Z,101035.48
2018-06-15T03:07:36.698Z,101036.80
2018-06-15T03:10:06.405Z,101040.77
2018-06-15T03:12:36.043Z,101035.10
2018-06-15T03:15:05.844Z,101035.98
2018-06-15T03:17:35.238Z,101033.39
2018-06-15T03:20:05.273Z,101037.31
2018-06-15T03:22:34.697Z,101041.25
2018-06-15T03:25:04.491Z,101034.27
2018-06-15T03:27:34.121Z,101045.20
2018-06-15T03:30:03.950Z,101036.43
2018-06-15T03:32:33.698Z,101041.67
2018-06-15T03:35:03.338Z,101040.36
2018-06-15T03:37:33.175Z,101041.25
2018-06-15T03:40:02.542Z,101039.94
2018-06-15T03:42:32.203Z,101028.61
2018-06-15T03:45:01.898Z,101039.94
2018-06-15T03:47:31.733Z,101036.86
2018-06-15T03:50:01.385Z,101042.14
2018-06-15T03:52:31.218Z,101047.83
2018-06-15T03:55:00.893Z,101052.62
2018-06-15T03:57:30.638Z,101057.86
2018-06-15T04:00:00.286Z,101063.97
2018-06-15T04:02:30.037Z,101061.81
2018-06-15T04:04:59.676Z,101063.10
2018-06-15T04:07:29.460Z,101069.22
2018-06-15T04:09:59.077Z,101070.05
2018-06-15T04:12:28.833Z,101071.36
2018-06-15T04:14:58.610Z,101065.68
2018-06-15T04:17:28.370Z,101073.96
2018-06-15T04:19:57.692Z,101069.61
2018-06-15T04:22:27.523Z,101073.53
2018-06-15T04:24:57.237Z,101071.30
2018-06-15T04:27:26.932Z,101071.74
2018-06-15T04:29:56.576Z,101069.98
2018-06-15T04:32:26.296Z,101067.77
2018-06-15T04:34:55.961Z,101071.63
2018-06-15T04:37:25.311Z,101071.63
2018-06-15T04:39:54.894Z,101069.05
2018-06-15T04:42:24.597Z,101067.30
2018-06-15T04:44:54.257Z,101067.25
2018-06-15T04:47:23.896Z,101071.63
2018-06-15T04:49:53.560Z,101072.02
2018-06-15T04:52:23.181Z,101075.50
2018-06-15T04:54:52.940Z,101072.42
2018-06-15T04:57:22.801Z,101072.02
2018-06-15T04:59:52.506Z,101078.55
2018-06-15T05:02:22.265Z,101073.19
2018-06-15T05:04:51.942Z,101077.13
2018-06-15T05:07:21.691Z,101071.49
2018-06-15T05:09:51.435Z,101081.56
2018-06-15T05:12:21.120Z,101083.22
2018-06-15T05:14:50.756Z,101086.36
2018-06-15T05:17:20.210Z,101080.17
2018-06-15T05:19:49.858Z,101077.94
2018-06-15T05:22:19.757Z,101078.84
2018-06-15T05:24:49.458Z,101080.59
2018-06-15T05:27:19.318Z,101083.48
2018-06-15T05:29:48.964Z,101087.53
2018-06-15T05:32:18.685Z,101087.44
2018-06-15T05:34:48.515Z,101083.73
2018-06-15T05:37:17.781Z,101084.67
2018-06-15T05:39:47.449Z,101085.02
2018-06-15T05:42:17.066Z,101086.39
2018-06-15T05:44:46.845Z,101088.97
2018-06-15T05:47:16.578Z,101097.40
2018-06-15T05:49:46.291Z,101099.91
2018-06-15T05:52:15.820Z,101100.34
2018-06-15T05:54:45.380Z,101093.44
2018-06-15T05:57:15.087Z,101093.28
2018-06-15T05:59:45.042Z,101095.31
2018-06-15T06:02:14.807Z,101094.81
2018-06-15T06:04:44.427Z,101096.30
2018-06-15T06:07:14.093Z,101096.13
2018-06-15T06:09:43.768Z,101099.27
2018-06-15T06:12:13.391Z,101104.22
2018-06-15T06:14:43.025Z,101107.30
2018-06-15T06:17:12.631Z,101112.12
2018-06-15T06:19:42.339Z,101115.04
2018-06-15T06:22:11.989Z,101113.11
2018-06-15T06:24:41.631Z,101111.99
2018-06-15T06:27:11.404Z,101114.73
2018-06-15T06:29:40.713Z,101120.72
2018-06-15T06:32:10.351Z,101115.37
2018-06-15T06:34:40.003Z,101117.67
2018-06-15T06:37:09.650Z,101114.48
2018-06-15T06:39:39.293Z,101113.53
2018-06-15T06:42:08.985Z,101123.67
2018-06-15T06:44:38.300Z,101124.30
2018-06-15T06:47:07.772Z,101122.42
2018-06-15T06:49:37.420Z,101118.44
2018-06-15T06:52:07.111Z,101126.09
2018-06-15T06:54:36.786Z,101122.54
2018-06-15T06:57:06.509Z,101129.92
2018-06-15T06:59:36.106Z,101127.30
2018-06-15T07:02:05.789Z,101126.72
2018-06-15T07:04:35.445Z,101125.95
2018-06-15T07:07:05.210Z,101128.76
2018-06-15T07:09:34.513Z,101125.32
2018-06-15T07:12:03.844Z,101124.66
2018-06-15T07:14:33.585Z,101121.87
2018-06-15T07:17:03.236Z,101124.50
2018-06-15T07:19:32.965Z,101129.92
2018-06-15T07:22:02.655Z,101124.57
2018-06-15T07:24:32.023Z,101123.92
2018-06-15T07:27:01.701Z,101120.23
2018-06-15T07:29:31.369Z,101129.36
2018-06-15T07:32:01.044Z,101127.48
2018-06-15T07:34:31.062Z,101127.63
2018-06-15T07:37:00.701Z,101125.34
2018-06-15T07:39:30.329Z,101126.77
2018-06-15T07:42:00.093Z,101114.91
2018-06-15T07:44:29.764Z,101121.95
2018-06-15T07:46:59.417Z,101120.97
2018-06-15T07:49:29.068Z,101121.27
2018-06-15T07:51:58.776Z,101124.32
2018-06-15T07:54:28.418Z,101121.75
2018-06-15T07:56:58.096Z,101121.20
2018-06-15T07:59:28.061Z,101121.20
2018-06-15T08:01:57.624Z,101127.14
2018-06-15T08:04:27.289Z,101125.04
2018-06-15T08:06:56.925Z,101124.83
2018-06-15T08:09:26.578Z,101128.48
2018-06-15T08:11:56.229Z,101122.60
2018-06-15T08:14:25.917Z,101125.40
2018-06-15T08:16:55.617Z,101119.06
2018-06-15T08:19:25.314Z,101120.89
2018-06-15T08:21:54.764Z,101118.86
2018-06-15T08:24:24.450Z,101117.23
2018-06-15T08:26:54.132Z,101117.39
2018-06-15T08:29:23.798Z,101113.80
2018-06-15T08:31:53.089Z,101114.59
2018-06-15T08:34:22.816Z,101118.45
2018-06-15T08:36:52.499Z,101112.08
2018-06-15T08:39:22.180Z,101107.29
2018-06-15T08:41:51.841Z,101103.81
2018-06-15T08:44:21.460Z,101105.50
2018-06-15T08:46:51.158Z,101107.80
2018-06-15T08:49:20.836Z,101109.99
2018-06-15T08:51:50.507Z,101107.28
2018-06-15T08:54:19.809Z,101106.78
2018-06-15T08:56:49.121Z,101097.53
2018-06-15T08:59:18.501Z,101106.48
2018-06-15T09:01:48.282Z,101104.27
2018-06-15T09:04:17.901Z,101110.66
2018-06-15T09:06:47.664Z,101113.97
2018-06-15T09:09:17.032Z,101117.80
2018-06-15T09:11:46.682Z,101109.68
2018-06-15T09:14:16.020Z,101110.12
2018-06-15T09:16:45.641Z,101100.97
2018-06-15T09:19:15.317Z,101115.77
2018-06-15T09:21:45.100Z,101107.47
2018-06-15T09:24:15.023Z,101113.67
2018-06-15T09:26:44.676Z,101111.33
2018-06-15T09:29:14.421Z,101110.08
2018-06-15T09:31:44.085Z,101107.97
2018-06-15T09:34:13.730Z,101109.11
2018-06-15T09:36:43.475Z,101107.53
2018-06-15T09:39:13.118Z,101109.09
2018-06-15T09:41:42.514Z,101106.72
2018-06-15T09:44:12.148Z,101106.64
2018-06-15T09:46:41.814Z,101100.78
2018-06-15T09:49:11.462Z,101104.91
2018-06-15T09:51:40.754Z,101100.80
2018-06-15T09:54:11.398Z,101112.20
2018-06-15T09:56:40.808Z,101113.27
2018-06-15T09:59:10.509Z,101098.27
2018-06-15T10:01:40.278Z,101101.48
2018-06-15T10:04:09.921Z,101103.66
2018-06-15T10:06:39.606Z,101104.23
2018-06-15T10:09:09.269Z,101105.09
2018-06-15T10:11:38.608Z,101101.92
2018-06-15T10:14:08.264Z,101100.62
2018-06-15T10:16:37.976Z,101100.33
2018-06-15T10:19:07.878Z,101104.32
2018-06-15T10:21:37.569Z,101097.55
2018-06-15T10:24:07.398Z,101099.93
2018-06-15T10:26:37.054Z,101098.45
2018-06-15T10:29:06.369Z,101096.33
2018-06-15T10:31:36.037Z,101095.54
2018-06-15T10:34:06.057Z,101091.16
2018-06-15T10:36:35.981Z,101096.50
2018-06-15T10:39:07.852Z,101087.50
2018-06-15T10:41:37.680Z,101093.33
2018-06-15T10:44:07.420Z,101091.88
2018-06-15T10:46:37.100Z,101086.14
2018-06-15T10:49:06.795Z,101085.20
2018-06-15T10:51:36.455Z,101092.22
2018-06-15T10:54:06.129Z,101088.97
2018-06-15T10:56:36.723Z,101090.01
2018-06-15T10:59:06.370Z,101090.30
2018-06-15T11:01:36.339Z,101087.33
2018-06-15T11:04:06.031Z,101086.36
2018-06-15T11:06:35.441Z,101078.25
2018-06-15T11:09:07.384Z,101081.91
2018-06-15T11:11:37.507Z,101085.09
2018-06-15T11:14:06.781Z,101082.22
2018-06-15T11:16:36.527Z,101078.54
2018-06-15T11:19:06.339Z,101081.67
2018-06-15T11:21:36.087Z,101077.19
2018-06-15T11:24:05.441Z,101079.66
2018-06-15T11:26:35.078Z,101071.30
2018-06-15T11:29:04.979Z,101071.81
2018-06-15T11:31:34.649Z,101070.99
2018-06-15T11:34:04.354Z,101063.70
2018-06-15T11:36:33.787Z,101062.47
2018-06-15T11:39:03.654Z,101066.03
2018-06-15T11:41:33.330Z,101059.18
2018-06-15T11:44:03.082Z,101047.74
2018-06-15T11:46:32.767Z,101056.29
2018-06-15T11:49:02.472Z,101054.44
2018-06-15T11:51:32.294Z,101055.50
2018-06-15T11:54:01.974Z,101044.23
2018-06-15T11:56:31.751Z,101052.38
2018-06-15T11:59:01.455Z,101044.88
2018-06-15T12:01:31.121Z,101042.30
2018-06-15T12:04:00.835Z,101037.63
2018-06-15T12:06:30.526Z,101039.28
2018-06-15T12:09:00.158Z,101036.77
2018-06-15T12:11:30.208Z,101039.20
2018-06-15T12:13:59.842Z,101035.39
2018-06-15T12:16:29.496Z,101036.97
2018-06-15T12:18:59.381Z,101036.05
2018-06-15T12:21:28.921Z,101035.61
2018-06-15T12:23:58.605Z,101034.61
2018-06-15T12:26:28.032Z,101040.54
2018-06-15T12:28:57.709Z,101039.85
2018-06-15T12:31:27.554Z,101033.87
2018-06-15T12:33:57.257Z,101036.80
2018-06-15T12:36:26.943Z,101029.21
2018-06-15T12:38:56.622Z,101026.70
2018-06-15T12:41:26.307Z,101025.09
2018-06-15T12:43:56.193Z,101019.62
2018-06-15T12:46:26.053Z,101020.96
2018-06-15T12:48:55.760Z,101019.71
2018-06-15T12:51:25.417Z,101021.43
2018-06-15T12:53:55.143Z,101022.16
2018-06-15T12:56:24.982Z,101026.84
2018-06-15T12:58:54.709Z,101022.25
2018-06-15T13:01:24.445Z,101025.65
2018-06-15T13:03:54.049Z,101030.34
2018-06-15T13:06:23.735Z,101031.97
2018-06-15T13:08:53.430Z,101032.22
2018-06-15T13:11:23.151Z,101031.72
2018-06-15T13:13:52.835Z,101024.78
2018-06-15T13:16:22.182Z,101032.35
2018-06-15T13:18:51.541Z,101030.34
2018-06-15T13:21:21.209Z,101029.70
2018-06-15T13:23:50.611Z,101031.70
2018-06-15T13:26:20.240Z,101026.54
2018-06-15T13:28:49.933Z,101030.13
2018-06-15T13:31:19.596Z,101026.73
2018-06-15T13:33:49.323Z,101024.53
2018-06-15T13:36:19.034Z,101023.80
2018-06-15T13:38:48.729Z,101018.53
2018-06-15T13:41:18.402Z,101013.13
2018-06-15T13:43:48.093Z,101019.03
2018-06-15T13:46:17.762Z,101012.20
2018-06-15T13:48:47.458Z,101016.95
2018-06-15T13:51:17.170Z,101008.80
2018-06-15T13:53:46.860Z,101013.47
2018-06-15T13:56:16.685Z,101002.56
2018-06-15T13:58:46.051Z,101006.86
2018-06-15T14:01:15.841Z,101003.11
2018-06-15T14:03:45.570Z,100995.38
2018-06-15T14:06:15.266Z,100996.81
2018-06-15T14:08:45.148Z,101002.58
2018-06-15T14:11:14.478Z,100994.28
2018-06-15T14:13:44.091Z,100998.28
2018-06-15T14:16:13.737Z,100999.55
2018-06-15T14:18:43.490Z,101001.58
2018-06-15T14:21:13.205Z,101007.64
2018-06-15T14:23:42.541Z,101002.80
2018-06-15T14:26:12.305Z,100999.27
2018-06-15T14:28:41.957Z,100993.63
2018-06-15T14:31:11.632Z,100995.37
2018-06-15T14:33:41.629Z,100988.31
2018-06-15T14:36:11.318Z,100990.58
2018-06-15T14:38:41.029Z,100981.00
2018-06-15T14:41:10.833Z,100986.13
2018-06-15T14:43:40.554Z,100982.41
2018-06-15T14:46:10.246Z,100981.29
2018-06-15T14:48:39.897Z,100978.81
2018-06-15T14:51:09.609Z,100985.38
2018-06-15T14:53:39.291Z,100983.27
2018-06-15T14:56:08.981Z,100981.79
2018-06-15T14:58:38.386Z,100982.86
2018-06-15T15:01:07.733Z,100976.83
2018-06-15T15:03:37.422Z,100974.62
2018-06-15T15:06:07.093Z,100971.06
2018-06-15T15:08:36.747Z,100972.69
2018-06-15T15:11:07.295Z,100975.57
2018-06-15T15:13:36.979Z,100971.83
2018-06-15T15:16:06.379Z,100966.47
2018-06-15T15:18:36.005Z,100964.55
2018-06-15T15:21:05.665Z,100972.86
2018-06-15T15:23:35.386Z,100971.26
2018-06-15T15:26:05.134Z,100964.84
2018-06-15T15:28:34.421Z,100962.97
2018-06-15T15:31:04.217Z,100966.66
2018-06-15T15:33:34.104Z,100972.02
2018-06-15T15:36:04.017Z,100975.91
2018-06-15T15:38:33.759Z,100972.16
2018-06-15T15:41:03.413Z,100967.19
2018-06-15T15:43:32.723Z,100968.16
2018-06-15T15:46:02.260Z,100953.27
2018-06-15T15:48:31.990Z,100959.41
2018-06-15T15:51:01.345Z,100958.09
2018-06-15T15:53:30.776Z,100955.27
2018-06-15T15:56:00.601Z,100955.97
2018-06-15T15:58:30.282Z,100953.38
2018-06-15T16:00:59.946Z,100951.84
2018-06-15T16:03:29.609Z,100951.56
2018-06-15T16:05:58.924Z,100946.63
2018-06-15T16:08:28.241Z,100945.75
2018-06-15T16:10:57.900Z,100943.44
2018-06-15T16:13:27.575Z,100942.17
2018-06-15T16:15:57.309Z,100942.48
2018-06-15T16:18:27.073Z,100946.20
2018-06-15T16:20:57.217Z,100944.47
2018-06-15T16:23:26.936Z,100946.45
2018-06-15T16:25:56.645Z,100943.50
2018-06-15T16:28:26.308Z,100934.70
2018-06-15T16:30:57.010Z,100939.20
2018-06-15T16:33:26.733Z,100937.93
2018-06-15T16:35:56.454Z,100935.39
2018-06-15T16:38:26.184Z,100942.09
2018-06-15T16:40:55.832Z,100939.57
2018-06-15T16:43:25.618Z,100942.94
2018-06-15T16:45:54.948Z,100931.56
2018-06-15T16:48:24.655Z,100939.33
2018-06-15T16:50:54.373Z,100937.98
2018-06-15T16:53:23.733Z,100939.36
2018-06-15T16:55:53.112Z,100941.20
2018-06-15T16:58:22.772Z,100937.70
2018-06-15T17:00:52.442Z,100939.13
2018-06-15T17:03:22.087Z,100942.22
2018-06-15T17:05:51.735Z,100938.24
2018-06-15T17:08:21.409Z,100947.17
2018-06-15T17:10:51.306Z,100943.64
2018-06-15T17:13:21.274Z,100944.17
2018-06-15T17:15:50.586Z,100943.00
2018-06-15T17:18:20.100Z,100945.35
2018-06-15T17:20:50.427Z,100944.73
2018-06-15T17:23:20.494Z,100949.11
2018-06-15T17:25:50.192Z,100945.98
2018-06-15T17:28:19.945Z,100947.19
2018-06-15T17:30:49.618Z,100947.32
2018-06-15T17:33:19.333Z,100960.13
2018-06-15T17:35:49.012Z,100964.72
2018-06-15T17:38:18.682Z,100959.97
2018-06-15T17:40:48.415Z,100957.23
2018-06-15T17:43:18.148Z,100957.52
2018-06-15T17:45:47.802Z,100962.84
2018-06-15T17:48:17.550Z,100960.58
2018-06-15T17:50:47.435Z,100968.74
2018-06-15T17:53:17.160Z,100973.00
2018-06-15T17:55:46.886Z,100977.42
2018-06-15T17:58:16.181Z,100966.98
2018-06-15T18:00:45.931Z,100964.17
2018-06-15T18:03:15.232Z,100972.10
2018-06-15T18:05:44.546Z,100966.28
2018-06-15T18:08:13.853Z,100971.87
2018-06-15T18:10:43.642Z,100980.09
2018-06-15T18:13:13.329Z,100980.78
2018-06-15T18:15:42.977Z,100984.50
2018-06-15T18:18:12.281Z,100977.41
2018-06-15T18:20:42.104Z,100975.48
2018-06-15T18:23:12.171Z,100968.03
2018-06-15T18:25:41.874Z,100974.97
2018-06-15T18:28:11.554Z,100975.81
2018-06-15T18:30:40.892Z,100972.95
2018-06-15T18:33:10.618Z,100974.54
2018-06-15T18:35:40.298Z,100973.08
2018-06-15T18:38:09.647Z,100977.14
2018-06-15T18:40:39.471Z,100964.25
2018-06-15T18:43:09.225Z,100969.23
2018-06-15T18:45:38.572Z,100970.03
2018-06-15T18:48:08.353Z,100974.33
2018-06-15T18:50:38.197Z,100971.70
2018-06-15T18:53:07.922Z,100977.45
2018-06-15T18:55:37.707Z,100974.00
2018-06-15T18:58:07.061Z,100973.22
2018-06-15T19:00:36.754Z,100970.62
2018-06-15T19:03:06.866Z,100970.66
2018-06-15T19:05:36.557Z,100969.90
2018-06-15T19:08:06.384Z,100971.75
2018-06-15T19:10:36.103Z,100964.15
2018-06-15T19:13:06.433Z,100968.20
2018-06-15T19:15:36.145Z,100969.25
2018-06-15T19:18:06.106Z,100969.17
2018-06-15T19:20:35.802Z,100975.33
2018-06-15T19:23:05.565Z,100969.88
2018-06-15T19:25:35.432Z,100970.58
2018-06-15T19:28:05.126Z,100972.45
2018-06-15T19:30:34.791Z,100971.34
2018-06-15T19:33:04.519Z,100976.09
2018-06-15T19:35:34.189Z,100977.52
2018-06-15T19:38:03.948Z,100973.56
2018-06-15T19:40:33.293Z,100978.27
2018-06-15T19:43:03.262Z,100977.81
2018-06-15T19:45:33.128Z,100969.33
2018-06-15T19:48:02.791Z,100971.33
2018-06-15T19:50:32.518Z,100969.59
2018-06-15T19:53:02.196Z,100982.92
2018-06-15T19:55:32.059Z,100981.33
2018-06-15T19:58:01.726Z,100979.78
2018-06-15T20:00:31.414Z,100979.57
2018-06-15T20:03:01.111Z,100980.95
2018-06-15T20:05:30.826Z,100981.19
2018-06-15T20:08:00.497Z,100985.70
2018-06-15T20:10:30.187Z,100980.50
2018-06-15T20:12:59.854Z,100978.34
2018-06-15T20:15:29.566Z,100984.07
2018-06-15T20:17:59.327Z,100975.06
2018-06-15T20:20:29.142Z,100980.50
2018-06-15T20:22:59.942Z,100975.38
2018-06-15T20:26:32.844Z,100973.52
2018-06-15T20:29:02.498Z,100981.07
2018-06-15T20:31:32.185Z,100983.50
2018-06-15T20:34:01.860Z,100987.69
2018-06-15T20:36:31.531Z,100980.50
2018-06-15T20:39:01.314Z,100984.62
2018-06-15T20:41:31.123Z,100982.16
2018-06-15T20:44:00.798Z,100976.16
2018-06-15T20:46:30.490Z,100976.27
2018-06-15T20:49:00.199Z,100978.16
2018-06-15T20:51:29.881Z,100982.18
2018-06-15T20:53:59.740Z,100979.96
2018-06-15T20:56:29.396Z,100982.06
2018-06-15T20:58:59.081Z,100980.30
2018-06-15T21:01:28.854Z,100976.35
2018-06-15T21:03:58.598Z,100971.34
2018-06-15T21:06:28.268Z,100966.48
2018-06-15T21:08:57.980Z,100967.39
2018-06-15T21:11:27.703Z,100964.47
2018-06-15T21:13:57.493Z,100969.81
2018-06-15T21:16:27.195Z,100965.38
2018-06-15T21:18:57.044Z,100963.80
2018-06-15T21:21:26.619Z,100967.83
2018-06-15T21:23:56.353Z,100960.84
2018-06-15T21:26:26.145Z,100961.28
2018-06-15T21:28:55.895Z,100963.05
2018-06-15T21:31:25.605Z,100958.31
2018-06-15T21:33:55.356Z,100954.86
2018-06-15T21:36:25.137Z,100957.56
2018-06-15T21:38:54.834Z,100954.97
2018-06-15T21:41:24.498Z,100957.25
2018-06-15T21:43:54.271Z,100960.44
2018-06-15T21:46:23.987Z,100959.19
2018-06-15T21:48:53.650Z,100966.28
2018-06-15T21:51:23.405Z,100962.48
2018-06-15T21:53:53.122Z,100958.25
2018-06-15T21:56:22.811Z,100956.66
2018-06-15T21:58:52.641Z,100959.76
2018-06-15T22:01:27.932Z,100955.03
2018-06-15T22:03:58.124Z,100955.87
2018-06-15T22:06:27.965Z,100955.87
2018-06-15T22:08:57.486Z,100955.81
2018-06-15T22:11:27.163Z,100961.13
2018-06-15T22:13:56.830Z,100959.76
2018-06-15T22:16:28.656Z,100959.73
2018-06-15T22:18:58.006Z,100957.47
2018-06-15T22:21:27.788Z,100957.08
2018-06-15T22:23:57.585Z,100952.78
2018-06-15T22:26:27.373Z,100952.86
2018-06-15T22:28:57.120Z,100951.18
2018-06-15T22:31:26.890Z,100956.48
2018-06-15T22:33:56.620Z,100960.44
2018-06-15T22:36:26.297Z,100961.76
2018-06-15T22:38:55.986Z,100958.69
2018-06-15T22:41:25.629Z,100959.00
2018-06-15T22:46:17.357Z,100960.13
2018-06-15T22:48:47.147Z,100967.95
2018-06-15T22:51:16.865Z,100964.82
2018-06-15T22:53:46.554Z,100969.60
2018-06-15T22:56:16.234Z,100970.41
2018-06-15T22:58:45.973Z,100972.97
2018-06-15T23:01:15.641Z,100976.44
2018-06-15T23:03:45.299Z,100977.30
2018-06-15T23:06:15.112Z,100979.06
2018-06-15T23:08:44.750Z,100966.88
2018-06-15T23:11:14.125Z,100968.77
2018-06-15T23:13:43.828Z,100964.48
2018-06-15T23:16:13.454Z,100971.98
2018-06-15T23:18:43.180Z,100963.30
2018-06-15T23:21:12.937Z,100963.48
2018-06-15T23:23:42.591Z,100964.50
2018-06-15T23:26:12.277Z,100969.28
2018-06-15T23:28:41.943Z,100965.86
2018-06-15T23:31:11.649Z,100963.33
2018-06-15T23:33:41.145Z,100962.48
2018-06-15T23:36:10.741Z,100963.84
2018-06-15T23:38:40.364Z,100965.22
2018-06-15T23:41:10.137Z,100966.16
2018-06-15T23:43:39.895Z,100966.65
2018-06-15T23:46:09.611Z,100969.30
2018-06-15T23:48:39.291Z,100968.03
2018-06-15T23:51:08.911Z,100972.87
2018-06-15T23:53:38.627Z,100966.31
2018-06-15T23:56:08.470Z,100968.11
2018-06-15T23:58:38.096Z,100971.20
